createdAt,value
2018-02-21T00:01:07.205Z,-7.70
2018-02-21T00:03:35.070Z,-8.00
2018-02-21T00:06:02.617Z,-7.90
2018-02-21T00:08:29.271Z,-8.00
2018-02-21T00:10:55.935Z,-7.90
2018-02-21T00:13:23.562Z,-7.80
2018-02-21T00:15:50.682Z,-7.80
2018-02-21T00:18:17.611Z,-7.80
2018-02-21T00:20:44.315Z,-7.80
2018-02-21T00:23:11.029Z,-7.90
2018-02-21T00:25:38.179Z,-7.90
2018-02-21T00:28:04.838Z,-7.80
2018-02-21T00:30:32.029Z,-7.80
2018-02-21T00:33:11.127Z,-7.80
2018-02-21T00:35:40.330Z,-7.90
2018-02-21T00:38:07.055Z,-7.90
2018-02-21T00:40:33.924Z,-8.00
2018-02-21T00:43:00.667Z,-8.00
2018-02-21T00:45:27.443Z,-8.00
2018-02-21T00:47:54.199Z,-7.90
2018-02-21T00:50:21.991Z,-8.00
2018-02-21T00:52:48.778Z,-8.00
2018-02-21T00:55:15.460Z,-8.00
2018-02-21T00:57:42.944Z,-8.00
2018-02-21T01:00:10.678Z,-7.90
2018-02-21T01:02:37.403Z,-8.00
2018-02-21T01:05:04.227Z,-8.00
2018-02-21T01:07:31.227Z,-7.90
2018-02-21T01:09:57.954Z,-7.90
2018-02-21T01:12:25.466Z,-7.80
2018-02-21T01:14:52.924Z,-7.80
2018-02-21T01:17:21.276Z,-7.80
2018-02-21T01:19:48.429Z,-7.80
2018-02-21T01:22:15.191Z,-7.70
2018-02-21T01:24:42.143Z,-7.80
2018-02-21T01:27:08.847Z,-7.70
2018-02-21T01:29:36.114Z,-7.90
2018-02-21T01:32:02.765Z,-7.80
2018-02-21T01:34:29.568Z,-7.80
2018-02-21T01:36:56.268Z,-7.80
2018-02-21T01:39:23.246Z,-7.80
2018-02-21T01:41:50.036Z,-7.90
2018-02-21T01:44:16.996Z,-7.90
2018-02-21T01:46:43.776Z,-7.90
2018-02-21T01:49:10.731Z,-7.80
2018-02-21T01:51:38.294Z,-7.80
2018-02-21T01:54:05.662Z,-7.80
2018-02-21T01:56:32.301Z,-7.90
2018-02-21T01:58:59.105Z,-7.80
2018-02-21T02:01:26.587Z,-7.80
2018-02-21T02:03:53.992Z,-7.70
2018-02-21T02:06:20.725Z,-7.70
2018-02-21T02:08:47.493Z,-7.70
2018-02-21T02:11:14.221Z,-7.80
2018-02-21T02:13:41.703Z,-7.60
2018-02-21T02:16:09.558Z,-7.70
2018-02-21T02:18:37.982Z,-7.60
2018-02-21T02:21:04.656Z,-7.60
2018-02-21T02:23:32.261Z,-7.70
2018-02-21T02:26:00.443Z,-7.70
2018-02-21T02:28:28.948Z,-7.70
2018-02-21T02:30:55.754Z,-7.70
2018-02-21T02:33:24.680Z,-7.70
2018-02-21T02:35:52.178Z,-7.70
2018-02-21T02:38:31.508Z,-7.70
2018-02-21T02:40:58.499Z,-7.70
2018-02-21T02:43:25.433Z,-7.70
2018-02-21T02:45:52.188Z,-7.80
2018-02-21T02:48:18.973Z,-7.60
2018-02-21T02:50:45.739Z,-7.70
2018-02-21T02:53:12.687Z,-7.70
2018-02-21T02:55:39.484Z,-7.70
2018-02-21T02:58:06.232Z,-7.70
2018-02-21T03:00:33.739Z,-7.70
2018-02-21T03:03:01.896Z,-7.70
2018-02-21T03:05:28.863Z,-7.60
2018-02-21T03:07:55.592Z,-7.60
2018-02-21T03:10:22.428Z,-7.60
2018-02-21T03:12:49.406Z,-7.70
2018-02-21T03:15:16.369Z,-7.70
2018-02-21T03:17:43.189Z,-7.80
2018-02-21T03:20:10.566Z,-7.80
2018-02-21T03:22:37.263Z,-7.80
2018-02-21T03:25:04.011Z,-7.80
2018-02-21T03:27:30.759Z,-7.70
2018-02-21T03:29:57.699Z,-7.70
2018-02-21T03:32:24.832Z,-7.70
2018-02-21T03:34:51.486Z,-7.80
2018-02-21T03:37:18.670Z,-7.70
2018-02-21T03:39:45.627Z,-7.70
2018-02-21T03:42:13.114Z,-7.70
2018-02-21T03:44:40.649Z,-7.60
2018-02-21T03:47:08.892Z,-7.60
2018-02-21T03:49:36.967Z,-7.70
2018-02-21T03:52:03.946Z,-7.70
2018-02-21T03:54:31.431Z,-7.60
2018-02-21T03:56:58.186Z,-7.60
2018-02-21T03:59:25.903Z,-7.60
2018-02-21T04:01:52.728Z,-7.60
2018-02-21T04:04:19.773Z,-7.60
2018-02-21T04:06:46.408Z,-7.60
2018-02-21T04:09:13.982Z,-7.50
2018-02-21T04:11:40.695Z,-7.50
2018-02-21T04:14:07.337Z,-7.50
2018-02-21T04:16:34.404Z,-7.50
2018-02-21T04:19:02.029Z,-7.60
2018-02-21T04:21:28.786Z,-7.60
2018-02-21T04:23:55.986Z,-7.60
2018-02-21T04:26:22.723Z,-7.60
2018-02-21T04:28:49.726Z,-7.60
2018-02-21T04:31:16.475Z,-7.60
2018-02-21T04:33:44.526Z,-7.60
2018-02-21T04:36:11.580Z,-7.60
2018-02-21T04:38:38.550Z,-7.60
2018-02-21T04:41:05.836Z,-7.50
2018-02-21T04:43:33.359Z,-7.60
2018-02-21T04:46:00.401Z,-7.60
2018-02-21T04:48:27.702Z,-7.50
2018-02-21T04:50:54.500Z,-7.60
2018-02-21T04:53:22.680Z,-7.70
2018-02-21T04:58:56.196Z,-7.70
2018-02-21T05:01:23.045Z,-7.60
2018-02-21T05:03:51.124Z,-7.60
2018-02-21T05:06:18.472Z,-7.70
2018-02-21T05:08:45.521Z,-7.60
2018-02-21T05:11:12.410Z,-7.60
2018-02-21T05:13:39.515Z,-7.70
2018-02-21T05:16:07.130Z,-7.70
2018-02-21T05:18:34.543Z,-7.70
2018-02-21T05:21:02.448Z,-7.70
2018-02-21T05:23:29.380Z,-7.70
2018-02-21T05:25:56.036Z,-7.80
2018-02-21T05:28:23.394Z,-7.80
2018-02-21T05:30:50.856Z,-7.70
2018-02-21T05:33:18.411Z,-7.60
2018-02-21T05:35:45.394Z,-7.70
2018-02-21T05:38:12.527Z,-7.70
2018-02-21T05:40:39.581Z,-7.70
2018-02-21T05:43:07.252Z,-7.70
2018-02-21T05:45:33.912Z,-7.90
2018-02-21T05:48:00.793Z,-7.90
2018-02-21T05:50:27.561Z,-7.90
2018-02-21T05:52:54.977Z,-7.80
2018-02-21T05:55:21.660Z,-7.80
2018-02-21T05:57:49.176Z,-7.80
2018-02-21T06:00:15.928Z,-7.80
2018-02-21T06:02:42.634Z,-7.80
2018-02-21T06:05:09.441Z,-7.80
2018-02-21T06:07:37.037Z,-7.80
2018-02-21T06:10:04.632Z,-7.80
2018-02-21T06:12:32.962Z,-7.80
2018-02-21T06:14:59.955Z,-7.80
2018-02-21T06:17:26.908Z,-7.80
2018-02-21T06:19:54.550Z,-7.80
2018-02-21T06:22:22.733Z,-7.70
2018-02-21T06:24:50.506Z,-7.70
2018-02-21T06:27:17.772Z,-7.70
2018-02-21T06:29:44.780Z,-7.80
2018-02-21T06:32:11.881Z,-7.70
2018-02-21T06:34:39.543Z,-7.60
2018-02-21T06:37:07.056Z,-7.60
2018-02-21T06:39:33.965Z,-7.60
2018-02-21T06:42:01.505Z,-7.60
2018-02-21T06:44:29.525Z,-7.60
2018-02-21T06:46:56.140Z,-7.60
2018-02-21T06:49:23.444Z,-7.50
2018-02-21T06:51:50.101Z,-7.40
2018-02-21T06:54:16.899Z,-7.30
2018-02-21T06:56:43.754Z,-7.20
2018-02-21T06:59:10.743Z,-7.20
2018-02-21T07:01:37.461Z,-7.10
2018-02-21T07:04:06.045Z,-7.10
2018-02-21T07:06:32.892Z,-7.10
2018-02-21T07:09:00.050Z,-7.00
2018-02-21T07:11:26.896Z,-6.90
2018-02-21T07:13:53.643Z,-6.90
2018-02-21T07:16:21.316Z,-6.90
2018-02-21T07:18:48.161Z,-6.90
2018-02-21T07:21:15.318Z,-7.00
2018-02-21T07:23:42.477Z,-6.90
2018-02-21T07:26:09.146Z,-6.80
2018-02-21T07:28:36.069Z,-6.60
2018-02-21T07:31:02.928Z,-6.60
2018-02-21T07:33:29.670Z,-6.60
2018-02-21T07:35:56.315Z,-6.60
2018-02-21T07:38:23.392Z,-6.60
2018-02-21T07:40:50.315Z,-6.30
2018-02-21T07:43:17.222Z,-6.40
2018-02-21T07:45:44.016Z,-6.40
2018-02-21T07:48:10.654Z,-6.10
2018-02-21T07:50:37.364Z,-6.10
2018-02-21T07:53:04.063Z,-6.00
2018-02-21T07:55:30.692Z,-5.90
2018-02-21T07:57:58.125Z,-5.80
2018-02-21T08:00:26.041Z,-5.60
2018-02-21T08:02:52.723Z,-5.60
2018-02-21T08:05:19.628Z,-5.40
2018-02-21T08:07:46.306Z,-5.10
2018-02-21T08:10:13.237Z,-4.90
2018-02-21T08:12:40.368Z,-4.70
2018-02-21T08:15:07.208Z,-4.50
2018-02-21T08:17:34.879Z,-4.20
2018-02-21T08:20:01.628Z,-4.20
2018-02-21T08:22:28.368Z,-3.90
2018-02-21T08:24:55.428Z,-3.80
2018-02-21T08:27:22.274Z,-3.70
2018-02-21T08:29:50.081Z,-4.10
2018-02-21T08:32:17.096Z,-3.80
2018-02-21T08:34:43.756Z,-3.90
2018-02-21T08:37:10.534Z,-3.90
2018-02-21T08:39:37.231Z,-3.80
2018-02-21T08:42:03.906Z,-3.70
2018-02-21T08:44:30.623Z,-3.40
2018-02-21T08:46:57.576Z,-3.30
2018-02-21T08:49:24.553Z,-3.20
2018-02-21T08:51:51.321Z,-3.10
2018-02-21T08:54:18.073Z,-2.50
2018-02-21T08:56:44.774Z,-2.20
2018-02-21T08:59:11.512Z,-2.20
2018-02-21T09:01:38.237Z,-2.30
2018-02-21T09:04:05.905Z,-1.60
2018-02-21T09:06:33.390Z,-1.90
2018-02-21T09:09:00.080Z,-1.90
2018-02-21T09:11:26.713Z,-1.50
2018-02-21T09:13:53.576Z,-1.30
2018-02-21T09:16:20.787Z,-1.20
2018-02-21T09:18:47.565Z,-1.50
2018-02-21T09:21:14.278Z,-0.90
2018-02-21T09:23:42.354Z,-0.80
2018-02-21T09:26:09.319Z,-0.40
2018-02-21T09:28:36.426Z,-0.40
2018-02-21T09:31:03.918Z,-0.40
2018-02-21T09:33:30.640Z,-0.40
2018-02-21T09:35:58.331Z,-0.40
2018-02-21T09:38:25.386Z,-0.40
2018-02-21T09:40:52.062Z,-0.40
2018-02-21T09:43:19.572Z,-1.10
2018-02-21T09:45:47.260Z,-0.80
2018-02-21T09:48:14.196Z,-0.80
2018-02-21T09:50:41.649Z,-0.20
2018-02-21T09:53:08.261Z,-0.20
2018-02-21T09:55:35.057Z,0.40
2018-02-21T09:58:01.772Z,-0.30
2018-02-21T10:00:28.454Z,-0.50
2018-02-21T10:02:55.118Z,-0.50
2018-02-21T10:05:21.824Z,-0.20
2018-02-21T10:07:48.492Z,0.50
2018-02-21T10:10:15.113Z,0.90
2018-02-21T10:12:42.525Z,1.30
2018-02-21T10:15:09.307Z,1.30
2018-02-21T10:17:37.931Z,-0.40
2018-02-21T10:20:04.953Z,-0.40
2018-02-21T10:22:32.447Z,-0.20
2018-02-21T10:24:59.295Z,-0.20
2018-02-21T10:27:26.349Z,0.50
2018-02-21T10:29:53.095Z,-0.50
2018-02-21T10:32:19.768Z,-1.10
2018-02-21T10:34:46.456Z,-1.60
2018-02-21T10:37:13.910Z,-2.00
2018-02-21T10:39:40.697Z,-2.00
2018-02-21T10:42:07.542Z,-1.50
2018-02-21T10:44:34.680Z,-1.40
2018-02-21T10:47:02.047Z,-1.30
2018-02-21T10:49:28.916Z,-1.20
2018-02-21T10:51:55.697Z,-1.40
2018-02-21T10:54:23.015Z,-1.10
2018-02-21T10:56:49.760Z,-1.20
2018-02-21T10:59:16.715Z,-0.90
2018-02-21T11:01:44.188Z,-0.70
2018-02-21T11:04:11.232Z,-0.60
2018-02-21T11:06:37.919Z,-1.00
2018-02-21T11:09:05.655Z,-1.00
2018-02-21T11:11:32.952Z,-1.00
2018-02-21T11:13:59.823Z,-0.90
2018-02-21T11:16:27.183Z,-0.90
2018-02-21T11:18:54.629Z,-1.00
2018-02-21T11:21:21.523Z,-1.00
2018-02-21T11:23:49.299Z,-1.30
2018-02-21T11:26:16.355Z,-1.70
2018-02-21T11:28:43.296Z,-2.00
2018-02-21T11:31:09.921Z,-2.00
2018-02-21T11:33:37.285Z,-1.40
2018-02-21T11:36:05.049Z,-1.60
2018-02-21T11:38:31.778Z,-1.60
2018-02-21T11:40:59.173Z,-1.70
2018-02-21T11:43:26.713Z,-1.90
2018-02-21T11:45:54.818Z,-1.70
2018-02-21T11:48:21.565Z,-1.80
2018-02-21T11:50:48.823Z,-1.50
2018-02-21T11:53:15.471Z,-1.70
2018-02-21T11:55:42.292Z,-1.50
2018-02-21T11:58:10.145Z,-1.90
2018-02-21T12:00:36.767Z,-1.90
2018-02-21T12:03:03.477Z,-2.10
2018-02-21T12:05:30.258Z,-1.90
2018-02-21T12:07:56.944Z,-2.10
2018-02-21T12:10:24.428Z,-2.20
2018-02-21T12:12:52.083Z,-2.30
2018-02-21T12:15:19.152Z,-2.20
2018-02-21T12:17:46.409Z,-2.20
2018-02-21T12:20:13.668Z,-2.00
2018-02-21T12:22:41.303Z,-2.00
2018-02-21T12:25:08.689Z,-2.70
2018-02-21T12:27:35.631Z,-2.70
2018-02-21T12:30:02.798Z,-2.80
2018-02-21T12:32:31.304Z,-2.70
2018-02-21T12:34:58.093Z,-2.80
2018-02-21T12:37:24.816Z,-2.60
2018-02-21T12:39:51.583Z,-2.70
2018-02-21T12:42:19.034Z,-2.90
2018-02-21T12:44:45.677Z,-2.70
2018-02-21T12:47:12.315Z,-2.50
2018-02-21T12:49:39.011Z,-2.70
2018-02-21T12:52:05.941Z,-2.80
2018-02-21T12:54:33.704Z,-2.80
2018-02-21T12:57:00.353Z,-2.90
2018-02-21T12:59:27.629Z,-2.80
2018-02-21T13:01:55.481Z,-2.60
2018-02-21T13:04:23.252Z,-2.70
2018-02-21T13:06:50.649Z,-2.60
2018-02-21T13:09:17.357Z,-2.70
2018-02-21T13:11:43.992Z,-2.60
2018-02-21T13:14:11.087Z,-2.30
2018-02-21T13:16:38.092Z,-2.40
2018-02-21T13:19:05.607Z,-2.60
2018-02-21T13:21:32.352Z,-2.70
2018-02-21T13:24:00.429Z,-2.50
2018-02-21T13:26:27.044Z,-2.60
2018-02-21T13:28:53.982Z,-2.50
2018-02-21T13:31:20.687Z,-2.40
2018-02-21T13:33:47.651Z,-2.40
2018-02-21T13:36:14.556Z,-2.20
2018-02-21T13:38:41.317Z,-1.90
2018-02-21T13:41:08.292Z,-2.20
2018-02-21T13:43:35.112Z,-2.10
2018-02-21T13:46:03.089Z,-2.40
2018-02-21T13:48:30.100Z,-2.40
2018-02-21T13:50:57.604Z,-2.30
2018-02-21T13:53:25.244Z,-2.30
2018-02-21T13:55:54.270Z,-2.50
2018-02-21T13:58:21.195Z,-2.50
2018-02-21T14:00:48.009Z,-2.40
2018-02-21T14:03:15.439Z,-3.00
2018-02-21T14:05:42.280Z,-3.00
2018-02-21T14:08:09.331Z,-3.20
2018-02-21T14:10:36.269Z,-3.20
2018-02-21T14:13:03.414Z,-3.20
2018-02-21T14:15:30.483Z,-3.20
2018-02-21T14:17:57.848Z,-3.20
2018-02-21T14:20:26.047Z,-3.10
2018-02-21T14:22:53.147Z,-3.10
2018-02-21T14:25:19.992Z,-3.20
2018-02-21T14:27:47.905Z,-3.30
2018-02-21T14:30:14.832Z,-3.20
2018-02-21T14:32:41.705Z,-3.10
2018-02-21T14:35:08.450Z,-3.10
2018-02-21T14:37:36.019Z,-3.30
2018-02-21T14:40:02.736Z,-3.30
2018-02-21T14:42:30.227Z,-3.40
2018-02-21T14:44:57.055Z,-3.50
2018-02-21T14:47:24.535Z,-3.60
2018-02-21T14:49:52.310Z,-3.60
2018-02-21T14:52:19.459Z,-3.70
2018-02-21T14:54:46.195Z,-3.60
2018-02-21T14:57:12.941Z,-3.60
2018-02-21T14:59:42.634Z,-3.40
2018-02-21T15:02:10.941Z,-3.50
2018-02-21T15:04:37.956Z,-3.50
2018-02-21T15:07:04.955Z,-3.60
2018-02-21T15:09:31.650Z,-3.70
2018-02-21T15:11:59.152Z,-3.80
2018-02-21T15:14:26.013Z,-4.00
2018-02-21T15:16:52.758Z,-4.10
2018-02-21T15:19:19.610Z,-4.20
2018-02-21T15:21:46.660Z,-4.40
2018-02-21T15:24:14.635Z,-4.50
2018-02-21T15:26:42.506Z,-4.70
2018-02-21T15:29:09.744Z,-4.70
2018-02-21T15:31:36.629Z,-4.70
2018-02-21T15:34:03.368Z,-4.90
2018-02-21T15:36:30.310Z,-5.00
2018-02-21T15:38:58.074Z,-5.20
2018-02-21T15:41:25.566Z,-5.40
2018-02-21T15:43:52.970Z,-5.40
2018-02-21T15:46:20.574Z,-5.60
2018-02-21T15:48:47.296Z,-5.60
2018-02-21T15:51:14.162Z,-5.80
2018-02-21T15:53:41.831Z,-5.90
2018-02-21T15:56:08.575Z,-6.00
2018-02-21T15:58:35.923Z,-6.00
2018-02-21T16:01:02.783Z,-6.10
2018-02-21T16:03:29.636Z,-6.20
2018-02-21T16:05:56.979Z,-6.30
2018-02-21T16:08:24.768Z,-6.60
2018-02-21T16:10:51.612Z,-6.70
2018-02-21T16:13:18.462Z,-6.80
2018-02-21T16:15:45.191Z,-7.00
2018-02-21T16:18:12.262Z,-7.10
2018-02-21T16:20:39.092Z,-7.20
2018-02-21T16:23:06.268Z,-7.40
2018-02-21T16:25:33.292Z,-7.50
2018-02-21T16:28:00.271Z,-7.40
2018-02-21T16:30:27.222Z,-7.60
2018-02-21T16:32:53.965Z,-7.70
2018-02-21T16:35:20.711Z,-7.90
2018-02-21T16:37:47.888Z,-8.00
2018-02-21T16:40:15.138Z,-8.10
2018-02-21T16:42:42.655Z,-8.10
2018-02-21T16:45:10.462Z,-8.20
2018-02-21T16:47:37.719Z,-8.20
2018-02-21T16:50:04.571Z,-8.30
2018-02-21T16:52:31.516Z,-8.40
2018-02-21T16:54:58.265Z,-8.50
2018-02-21T16:57:25.320Z,-8.60
2018-02-21T16:59:52.094Z,-8.60
2018-02-21T17:02:19.937Z,-8.70
2018-02-21T17:04:47.052Z,-8.80
2018-02-21T17:07:14.965Z,-8.70
2018-02-21T17:09:41.803Z,-8.80
2018-02-21T17:12:09.075Z,-8.80
2018-02-21T17:14:36.184Z,-8.80
2018-02-21T17:17:04.200Z,-8.50
2018-02-21T17:19:31.431Z,-8.60
2018-02-21T17:21:59.204Z,-8.30
2018-02-21T17:24:26.591Z,-8.30
2018-02-21T17:26:53.641Z,-8.10
2018-02-21T17:29:20.910Z,-7.90
2018-02-21T17:31:47.953Z,-8.00
2018-02-21T17:34:14.903Z,-8.00
2018-02-21T17:36:43.083Z,-8.10
2018-02-21T17:39:10.645Z,-8.10
2018-02-21T17:41:38.261Z,-7.90
2018-02-21T17:44:05.104Z,-7.70
2018-02-21T17:46:32.013Z,-7.60
2018-02-21T17:48:58.758Z,-7.60
2018-02-21T17:51:25.493Z,-7.70
2018-02-21T17:53:52.131Z,-7.80
2018-02-21T17:56:19.693Z,-7.90
2018-02-21T17:58:46.723Z,-7.90
2018-02-21T18:01:14.336Z,-7.80
2018-02-21T18:03:41.475Z,-7.80
2018-02-21T18:06:08.435Z,-7.70
2018-02-21T18:08:35.163Z,-7.80
2018-02-21T18:11:02.652Z,-8.10
2018-02-21T18:13:29.347Z,-8.10
2018-02-21T18:15:56.136Z,-8.20
2018-02-21T18:18:22.779Z,-8.30
2018-02-21T18:20:49.426Z,-8.40
2018-02-21T18:23:16.307Z,-8.50
2018-02-21T18:25:42.954Z,-8.60
2018-02-21T18:28:09.968Z,-8.70
2018-02-21T18:30:36.909Z,-8.80
2018-02-21T18:33:03.573Z,-8.90
2018-02-21T18:35:30.642Z,-9.00
2018-02-21T18:37:57.281Z,-9.10
2018-02-21T18:40:23.993Z,-9.10
2018-02-21T18:42:50.911Z,-9.00
2018-02-21T18:45:17.777Z,-9.00
2018-02-21T18:47:45.298Z,-9.10
2018-02-21T18:50:12.300Z,-9.10
2018-02-21T18:52:40.200Z,-9.30
2018-02-21T18:55:06.940Z,-9.30
2018-02-21T18:57:33.792Z,-9.20
2018-02-21T19:00:00.439Z,-9.20
2018-02-21T19:02:27.440Z,-9.00
2018-02-21T19:04:55.056Z,-9.00
2018-02-21T19:07:22.004Z,-9.10
2018-02-21T19:09:49.163Z,-9.20
2018-02-21T19:12:16.725Z,-8.90
2018-02-21T19:14:43.576Z,-8.90
2018-02-21T19:17:10.308Z,-8.70
2018-02-21T19:19:37.084Z,-8.60
2018-02-21T19:22:03.815Z,-8.50
2018-02-21T19:24:31.072Z,-8.50
2018-02-21T19:26:57.843Z,-8.40
2018-02-21T19:29:24.868Z,-8.20
2018-02-21T19:31:51.522Z,-8.20
2018-02-21T19:34:18.222Z,-8.10
2018-02-21T19:36:44.903Z,-8.10
2018-02-21T19:39:11.861Z,-8.10
2018-02-21T19:41:38.703Z,-8.20
2018-02-21T19:44:05.323Z,-8.30
2018-02-21T19:46:33.118Z,-8.20
2018-02-21T19:48:59.813Z,-8.30
2018-02-21T19:51:26.519Z,-8.30
2018-02-21T19:53:54.005Z,-8.20
2018-02-21T19:56:20.680Z,-8.20
2018-02-21T19:58:48.173Z,-8.30
2018-02-21T20:01:14.855Z,-8.40
2018-02-21T20:03:42.082Z,-8.40
2018-02-21T20:06:08.932Z,-8.40
2018-02-21T20:08:36.076Z,-8.50
2018-02-21T20:11:02.930Z,-8.60
2018-02-21T20:13:30.724Z,-8.80
2018-02-21T20:15:57.654Z,-8.90
2018-02-21T20:18:24.612Z,-8.90
2018-02-21T20:20:51.351Z,-9.00
2018-02-21T20:23:18.080Z,-9.00
2018-02-21T20:25:46.278Z,-8.90
2018-02-21T20:28:13.025Z,-9.00
2018-02-21T20:30:39.776Z,-8.90
2018-02-21T20:33:06.822Z,-8.90
2018-02-21T20:35:33.543Z,-8.90
2018-02-21T20:38:01.108Z,-9.00
2018-02-21T20:40:30.637Z,-9.20
2018-02-21T20:42:57.398Z,-9.10
2018-02-21T20:45:24.414Z,-9.20
2018-02-21T20:47:52.008Z,-9.40
2018-02-21T20:50:19.881Z,-9.50
2018-02-21T20:52:47.140Z,-9.60
2018-02-21T20:55:14.823Z,-9.80
2018-02-21T20:57:41.936Z,-9.80
2018-02-21T21:00:09.756Z,-9.90
2018-02-21T21:02:36.489Z,-9.90
2018-02-21T21:05:03.971Z,-10.00
2018-02-21T21:07:30.661Z,-10.20
2018-02-21T21:10:00.222Z,-10.20
2018-02-21T21:12:27.003Z,-10.20
2018-02-21T21:14:53.979Z,-10.40
2018-02-21T21:17:20.618Z,-10.50
2018-02-21T21:19:48.352Z,-10.80
2018-02-21T21:22:15.252Z,-10.90
2018-02-21T21:24:42.888Z,-10.80
2018-02-21T21:27:09.596Z,-10.90
2018-02-21T21:29:36.369Z,-11.10
2018-02-21T21:32:03.181Z,-11.10
2018-02-21T21:34:29.808Z,-11.00
2018-02-21T21:36:56.693Z,-10.90
2018-02-21T21:39:23.659Z,-10.90
2018-02-21T21:41:50.608Z,-11.00
2018-02-21T21:44:17.635Z,-11.00
2018-02-21T21:46:44.712Z,-11.10
2018-02-21T21:49:11.789Z,-11.20
2018-02-21T21:51:39.521Z,-11.60
2018-02-21T21:54:06.239Z,-11.60
2018-02-21T21:56:33.389Z,-11.40
2018-02-21T21:59:00.208Z,-11.60
2018-02-21T22:01:27.596Z,-11.60
2018-02-21T22:03:54.650Z,-11.60
2018-02-21T22:06:21.596Z,-11.70
2018-02-21T22:08:48.247Z,-11.50
2018-02-21T22:11:14.929Z,-11.50
2018-02-21T22:13:43.215Z,-11.60
2018-02-21T22:16:11.095Z,-11.60
2018-02-21T22:18:38.194Z,-11.80
2018-02-21T22:21:05.586Z,-11.80
2018-02-21T22:23:32.249Z,-11.80
2018-02-21T22:25:59.612Z,-11.90
2018-02-21T22:28:28.131Z,-11.90
2018-02-21T22:30:54.994Z,-11.90
2018-02-21T22:33:23.134Z,-12.00
2018-02-21T22:35:50.946Z,-12.00
2018-02-21T22:38:18.289Z,-12.10
2018-02-21T22:40:45.932Z,-12.10
2018-02-21T22:43:15.247Z,-12.10
2018-02-21T22:45:42.837Z,-12.10
2018-02-21T22:48:10.271Z,-12.20
2018-02-21T22:50:38.281Z,-12.20
2018-02-21T22:53:05.365Z,-12.30
2018-02-21T22:55:32.569Z,-12.40
2018-02-21T22:58:00.397Z,-12.30
2018-02-21T23:00:29.461Z,-12.30
2018-02-21T23:02:56.576Z,-12.30
2018-02-21T23:05:23.966Z,-12.30
2018-02-21T23:07:51.549Z,-12.30
2018-02-21T23:10:19.107Z,-12.40
2018-02-21T23:12:46.185Z,-12.40
2018-02-21T23:15:13.115Z,-12.30
2018-02-21T23:17:40.962Z,-12.30
2018-02-21T23:20:09.674Z,-12.40
2018-02-21T23:22:37.769Z,-12.40
2018-02-21T23:25:06.670Z,-12.40
2018-02-21T23:27:34.584Z,-12.40
2018-02-21T23:30:03.369Z,-12.40
2018-02-21T23:32:31.606Z,-12.60
2018-02-21T23:34:58.817Z,-12.60
2018-02-21T23:37:25.641Z,-12.60
2018-02-21T23:39:52.384Z,-12.60
2018-02-21T23:42:19.458Z,-12.60
2018-02-21T23:44:46.840Z,-12.60
2018-02-21T23:47:14.902Z,-12.50
2018-02-21T23:49:43.040Z,-12.60
2018-02-21T23:52:11.419Z,-12.70
2018-02-21T23:54:39.511Z,-12.70
2018-02-21T23:57:07.950Z,-12.50
2018-02-21T23:59:35.039Z,-12.50
